sensor_id;sensor_type;location;lat;lon;timestamp;temperature;humidity
55721;DHT22;41626;53.098;6.168;2022-08-03T00:01:25;19.30;99.90
55721;DHT22;41626;53.098;6.168;2022-08-03T00:03:51;19.20;99.90
55721;DHT22;41626;53.098;6.168;2022-08-03T00:06:17;19.00;99.90
55721;DHT22;41626;53.098;6.168;2022-08-03T00:08:42;19.00;99.90
55721;DHT22;41626;53.098;6.168;2022-08-03T00:11:08;19.00;99.90
55721;DHT22;41626;53.098;6.168;2022-08-03T00:13:34;19.30;99.90
55721;DHT22;41626;53.098;6.168;2022-08-03T00:15:59;19.20;99.90
55721;DHT22;41626;53.098;6.168;2022-08-03T00:18:25;19.20;99.90
55721;DHT22;41626;53.098;6.168;2022-08-03T00:20:51;19.00;99.90
55721;DHT22;41626;53.098;6.168;2022-08-03T00:23:17;19.20;99.90
55721;DHT22;41626;53.098;6.168;2022-08-03T00:25:42;19.20;99.90
55721;DHT22;41626;53.098;6.168;2022-08-03T00:28:08;19.00;99.90
55721;DHT22;41626;53.098;6.168;2022-08-03T00:30:35;19.10;99.90
55721;DHT22;41626;53.098;6.168;2022-08-03T00:33:01;19.10;99.90
55721;DHT22;41626;53.098;6.168;2022-08-03T00:35:27;19.00;99.90
55721;DHT22;41626;53.098;6.168;2022-08-03T00:37:53;19.00;99.90
55721;DHT22;41626;53.098;6.168;2022-08-03T00:40:19;19.00;99.90
55721;DHT22;41626;53.098;6.168;2022-08-03T00:42:56;19.20;99.90
55721;DHT22;41626;53.098;6.168;2022-08-03T00:45:25;18.80;99.90
55721;DHT22;41626;53.098;6.168;2022-08-03T00:47:51;19.00;99.90
55721;DHT22;41626;53.098;6.168;2022-08-03T00:50:18;18.80;99.90
55721;DHT22;41626;53.098;6.168;2022-08-03T00:52:44;18.80;99.90
55721;DHT22;41626;53.098;6.168;2022-08-03T00:55:11;19.00;99.90
55721;DHT22;41626;53.098;6.168;2022-08-03T00:57:37;19.00;99.90
55721;DHT22;41626;53.098;6.168;2022-08-03T01:00:07;19.00;99.90
55721;DHT22;41626;53.098;6.168;2022-08-03T01:02:33;18.70;99.90
55721;DHT22;41626;53.098;6.168;2022-08-03T01:04:59;18.80;99.90
55721;DHT22;41626;53.098;6.168;2022-08-03T01:10:08;18.80;99.90
55721;DHT22;41626;53.098;6.168;2022-08-03T01:12:59;18.90;99.90
55721;DHT22;41626;53.098;6.168;2022-08-03T01:18:40;19.00;99.90
55721;DHT22;41626;53.098;6.168;2022-08-03T01:21:13;18.80;99.90
55721;DHT22;41626;53.098;6.168;2022-08-03T01:24:22;18.70;99.90
55721;DHT22;41626;53.098;6.168;2022-08-03T01:26:52;18.80;99.90
55721;DHT22;41626;53.098;6.168;2022-08-03T01:32:16;18.70;99.90
55721;DHT22;41626;53.098;6.168;2022-08-03T01:34:47;18.80;99.90
55721;DHT22;41626;53.098;6.168;2022-08-03T01:37:23;18.60;99.90
55721;DHT22;41626;53.098;6.168;2022-08-03T01:39:51;18.60;99.90
55721;DHT22;41626;53.098;6.168;2022-08-03T01:42:19;18.60;99.90
55721;DHT22;41626;53.098;6.168;2022-08-03T01:44:46;18.80;99.90
55721;DHT22;41626;53.098;6.168;2022-08-03T01:47:15;18.70;99.90
55721;DHT22;41626;53.098;6.168;2022-08-03T01:49:44;18.60;99.90
55721;DHT22;41626;53.098;6.168;2022-08-03T01:52:12;18.80;99.90
55721;DHT22;41626;53.098;6.168;2022-08-03T01:54:43;18.60;99.90
55721;DHT22;41626;53.098;6.168;2022-08-03T01:57:10;18.60;99.90
55721;DHT22;41626;53.098;6.168;2022-08-03T01:59:36;18.60;99.90
55721;DHT22;41626;53.098;6.168;2022-08-03T02:02:04;18.60;99.90
55721;DHT22;41626;53.098;6.168;2022-08-03T02:04:31;18.40;99.90
55721;DHT22;41626;53.098;6.168;2022-08-03T02:06:57;18.50;99.90
55721;DHT22;41626;53.098;6.168;2022-08-03T02:09:24;18.70;99.90
55721;DHT22;41626;53.098;6.168;2022-08-03T02:11:52;18.50;99.90
55721;DHT22;41626;53.098;6.168;2022-08-03T02:14:20;18.40;99.90
55721;DHT22;41626;53.098;6.168;2022-08-03T02:16:48;18.60;99.90
55721;DHT22;41626;53.098;6.168;2022-08-03T02:19:16;18.30;99.90
55721;DHT22;41626;53.098;6.168;2022-08-03T02:21:44;18.20;99.90
55721;DHT22;41626;53.098;6.168;2022-08-03T02:24:11;18.40;99.90
55721;DHT22;41626;53.098;6.168;2022-08-03T02:26:39;18.40;99.90
55721;DHT22;41626;53.098;6.168;2022-08-03T02:29:11;18.30;99.90
55721;DHT22;41626;53.098;6.168;2022-08-03T02:31:38;18.40;99.90
55721;DHT22;41626;53.098;6.168;2022-08-03T02:34:11;18.40;99.90
55721;DHT22;41626;53.098;6.168;2022-08-03T02:36:38;18.30;99.90
55721;DHT22;41626;53.098;6.168;2022-08-03T02:39:06;18.40;99.90
55721;DHT22;41626;53.098;6.168;2022-08-03T02:41:39;18.50;99.90
55721;DHT22;41626;53.098;6.168;2022-08-03T02:44:10;18.30;99.90
55721;DHT22;41626;53.098;6.168;2022-08-03T02:46:37;18.30;99.90
55721;DHT22;41626;53.098;6.168;2022-08-03T02:49:03;18.40;99.90
55721;DHT22;41626;53.098;6.168;2022-08-03T02:51:32;18.40;99.90
55721;DHT22;41626;53.098;6.168;2022-08-03T02:54:01;18.50;99.90
55721;DHT22;41626;53.098;6.168;2022-08-03T02:56:28;18.40;99.90
55721;DHT22;41626;53.098;6.168;2022-08-03T02:58:56;18.50;99.90
55721;DHT22;41626;53.098;6.168;2022-08-03T03:01:24;18.30;99.90
55721;DHT22;41626;53.098;6.168;2022-08-03T03:03:51;18.30;99.90
55721;DHT22;41626;53.098;6.168;2022-08-03T03:06:18;18.50;99.90
55721;DHT22;41626;53.098;6.168;2022-08-03T03:08:45;18.20;99.90
55721;DHT22;41626;53.098;6.168;2022-08-03T03:11:13;18.30;99.90
55721;DHT22;41626;53.098;6.168;2022-08-03T03:13:41;18.30;99.90
55721;DHT22;41626;53.098;6.168;2022-08-03T03:16:07;18.40;99.90
55721;DHT22;41626;53.098;6.168;2022-08-03T03:18:34;18.40;99.90
55721;DHT22;41626;53.098;6.168;2022-08-03T03:21:02;18.10;99.90
55721;DHT22;41626;53.098;6.168;2022-08-03T03:23:29;18.30;99.90
55721;DHT22;41626;53.098;6.168;2022-08-03T03:25:55;18.10;99.90
55721;DHT22;41626;53.098;6.168;2022-08-03T03:28:23;18.10;99.90
55721;DHT22;41626;53.098;6.168;2022-08-03T03:30:49;18.00;99.90
55721;DHT22;41626;53.098;6.168;2022-08-03T03:33:16;18.20;99.90
55721;DHT22;41626;53.098;6.168;2022-08-03T03:35:42;18.00;99.90
55721;DHT22;41626;53.098;6.168;2022-08-03T03:38:10;18.30;99.90
55721;DHT22;41626;53.098;6.168;2022-08-03T03:40:37;18.30;99.90
55721;DHT22;41626;53.098;6.168;2022-08-03T03:43:06;18.30;99.90
55721;DHT22;41626;53.098;6.168;2022-08-03T03:45:33;18.20;99.90
55721;DHT22;41626;53.098;6.168;2022-08-03T03:48:06;18.10;99.90
55721;DHT22;41626;53.098;6.168;2022-08-03T03:50:33;18.10;99.90
55721;DHT22;41626;53.098;6.168;2022-08-03T03:53:00;18.00;99.90
55721;DHT22;41626;53.098;6.168;2022-08-03T03:55:26;18.00;99.90
55721;DHT22;41626;53.098;6.168;2022-08-03T03:57:51;18.10;99.90
55721;DHT22;41626;53.098;6.168;2022-08-03T04:00:18;17.90;99.90
55721;DHT22;41626;53.098;6.168;2022-08-03T04:02:44;18.10;99.90
55721;DHT22;41626;53.098;6.168;2022-08-03T04:05:10;18.30;99.90
55721;DHT22;41626;53.098;6.168;2022-08-03T04:07:58;18.00;99.90
55721;DHT22;41626;53.098;6.168;2022-08-03T04:11:01;18.30;99.90
55721;DHT22;41626;53.098;6.168;2022-08-03T04:13:34;18.00;99.90
55721;DHT22;41626;53.098;6.168;2022-08-03T04:16:02;17.90;99.90
55721;DHT22;41626;53.098;6.168;2022-08-03T04:18:30;18.20;99.90
55721;DHT22;41626;53.098;6.168;2022-08-03T04:21:02;18.20;99.90
55721;DHT22;41626;53.098;6.168;2022-08-03T04:23:30;17.90;99.90
55721;DHT22;41626;53.098;6.168;2022-08-03T04:25:58;18.00;99.90
55721;DHT22;41626;53.098;6.168;2022-08-03T04:28:26;18.20;99.90
55721;DHT22;41626;53.098;6.168;2022-08-03T04:30:53;17.90;99.90
55721;DHT22;41626;53.098;6.168;2022-08-03T04:33:21;17.90;99.90
55721;DHT22;41626;53.098;6.168;2022-08-03T04:35:51;18.20;99.90
55721;DHT22;41626;53.098;6.168;2022-08-03T04:38:20;18.20;99.90
55721;DHT22;41626;53.098;6.168;2022-08-03T04:40:47;18.20;99.90
55721;DHT22;41626;53.098;6.168;2022-08-03T04:43:15;18.00;99.90
55721;DHT22;41626;53.098;6.168;2022-08-03T04:45:42;18.30;99.90
55721;DHT22;41626;53.098;6.168;2022-08-03T04:48:13;18.30;99.90
55721;DHT22;41626;53.098;6.168;2022-08-03T04:50:40;18.20;99.90
55721;DHT22;41626;53.098;6.168;2022-08-03T04:53:06;18.20;99.90
55721;DHT22;41626;53.098;6.168;2022-08-03T04:55:33;18.50;99.90
55721;DHT22;41626;53.098;6.168;2022-08-03T04:58:00;18.40;99.90
55721;DHT22;41626;53.098;6.168;2022-08-03T05:00:27;18.40;99.90
55721;DHT22;41626;53.098;6.168;2022-08-03T05:02:53;18.30;99.90
55721;DHT22;41626;53.098;6.168;2022-08-03T05:05:20;18.60;99.90
55721;DHT22;41626;53.098;6.168;2022-08-03T05:07:46;18.20;99.90
55721;DHT22;41626;53.098;6.168;2022-08-03T05:10:12;18.50;99.90
55721;DHT22;41626;53.098;6.168;2022-08-03T05:12:39;18.30;99.90
55721;DHT22;41626;53.098;6.168;2022-08-03T05:15:05;18.40;99.90
55721;DHT22;41626;53.098;6.168;2022-08-03T05:17:31;18.50;99.90
55721;DHT22;41626;53.098;6.168;2022-08-03T05:19:59;18.50;99.90
55721;DHT22;41626;53.098;6.168;2022-08-03T05:22:25;18.70;99.90
55721;DHT22;41626;53.098;6.168;2022-08-03T05:24:50;18.70;99.90
55721;DHT22;41626;53.098;6.168;2022-08-03T05:27:16;18.80;99.90
55721;DHT22;41626;53.098;6.168;2022-08-03T05:29:48;18.70;99.90
55721;DHT22;41626;53.098;6.168;2022-08-03T05:32:15;18.60;99.90
55721;DHT22;41626;53.098;6.168;2022-08-03T05:34:41;18.80;99.90
55721;DHT22;41626;53.098;6.168;2022-08-03T05:37:07;18.90;99.90
55721;DHT22;41626;53.098;6.168;2022-08-03T05:39:33;18.60;99.90
55721;DHT22;41626;53.098;6.168;2022-08-03T05:41:59;18.80;99.90
55721;DHT22;41626;53.098;6.168;2022-08-03T05:44:25;19.00;99.90
55721;DHT22;41626;53.098;6.168;2022-08-03T05:46:51;19.10;99.90
55721;DHT22;41626;53.098;6.168;2022-08-03T05:49:18;18.90;99.90
55721;DHT22;41626;53.098;6.168;2022-08-03T05:51:44;18.80;99.90
55721;DHT22;41626;53.098;6.168;2022-08-03T05:54:10;19.10;99.90
55721;DHT22;41626;53.098;6.168;2022-08-03T05:56:36;19.30;99.90
55721;DHT22;41626;53.098;6.168;2022-08-03T05:59:01;19.20;99.90
55721;DHT22;41626;53.098;6.168;2022-08-03T06:01:28;19.40;99.90
55721;DHT22;41626;53.098;6.168;2022-08-03T06:03:54;19.20;99.90
55721;DHT22;41626;53.098;6.168;2022-08-03T06:06:20;19.20;99.90
55721;DHT22;41626;53.098;6.168;2022-08-03T06:08:45;19.30;99.90
55721;DHT22;41626;53.098;6.168;2022-08-03T06:11:13;19.50;99.90
55721;DHT22;41626;53.098;6.168;2022-08-03T06:13:39;19.30;99.90
55721;DHT22;41626;53.098;6.168;2022-08-03T06:16:05;19.50;99.90
55721;DHT22;41626;53.098;6.168;2022-08-03T06:18:32;19.50;99.90
55721;DHT22;41626;53.098;6.168;2022-08-03T06:20:57;19.40;99.90
55721;DHT22;41626;53.098;6.168;2022-08-03T06:23:23;19.60;99.90
55721;DHT22;41626;53.098;6.168;2022-08-03T06:25:49;19.60;99.90
55721;DHT22;41626;53.098;6.168;2022-08-03T06:28:14;19.80;99.90
55721;DHT22;41626;53.098;6.168;2022-08-03T06:30:40;19.90;99.90
55721;DHT22;41626;53.098;6.168;2022-08-03T06:33:06;19.70;99.90
55721;DHT22;41626;53.098;6.168;2022-08-03T06:35:32;19.70;99.90
55721;DHT22;41626;53.098;6.168;2022-08-03T06:37:58;19.80;99.90
55721;DHT22;41626;53.098;6.168;2022-08-03T06:40:24;19.80;99.90
55721;DHT22;41626;53.098;6.168;2022-08-03T06:43:00;20.10;99.90
55721;DHT22;41626;53.098;6.168;2022-08-03T06:45:27;20.20;99.90
55721;DHT22;41626;53.098;6.168;2022-08-03T06:48:05;20.20;99.90
55721;DHT22;41626;53.098;6.168;2022-08-03T06:50:31;20.10;99.90
55721;DHT22;41626;53.098;6.168;2022-08-03T06:52:57;20.20;99.90
55721;DHT22;41626;53.098;6.168;2022-08-03T06:55:23;20.40;99.90
55721;DHT22;41626;53.098;6.168;2022-08-03T06:57:49;20.60;99.90
55721;DHT22;41626;53.098;6.168;2022-08-03T07:00:15;20.60;99.90
55721;DHT22;41626;53.098;6.168;2022-08-03T07:02:41;20.70;99.90
55721;DHT22;41626;53.098;6.168;2022-08-03T07:05:08;20.40;99.90
55721;DHT22;41626;53.098;6.168;2022-08-03T07:07:33;20.80;99.90
55721;DHT22;41626;53.098;6.168;2022-08-03T07:09:59;20.50;99.90
55721;DHT22;41626;53.098;6.168;2022-08-03T07:12:28;20.80;99.90
55721;DHT22;41626;53.098;6.168;2022-08-03T07:14:55;21.80;99.90
55721;DHT22;41626;53.098;6.168;2022-08-03T07:17:21;23.20;99.90
55721;DHT22;41626;53.098;6.168;2022-08-03T07:19:47;23.90;99.90
55721;DHT22;41626;53.098;6.168;2022-08-03T07:22:13;24.50;99.90
55721;DHT22;41626;53.098;6.168;2022-08-03T07:24:38;25.00;99.90
55721;DHT22;41626;53.098;6.168;2022-08-03T07:27:06;24.20;99.90
55721;DHT22;41626;53.098;6.168;2022-08-03T07:29:33;24.50;99.90
55721;DHT22;41626;53.098;6.168;2022-08-03T07:31:59;25.40;99.90
55721;DHT22;41626;53.098;6.168;2022-08-03T07:34:24;26.20;99.90
55721;DHT22;41626;53.098;6.168;2022-08-03T07:36:50;25.90;99.90
55721;DHT22;41626;53.098;6.168;2022-08-03T07:39:16;25.80;99.90
55721;DHT22;41626;53.098;6.168;2022-08-03T07:41:41;24.90;99.90
55721;DHT22;41626;53.098;6.168;2022-08-03T07:44:07;24.30;99.90
55721;DHT22;41626;53.098;6.168;2022-08-03T07:46:33;23.80;99.90
55721;DHT22;41626;53.098;6.168;2022-08-03T07:48:58;23.50;99.90
55721;DHT22;41626;53.098;6.168;2022-08-03T07:51:24;23.20;99.90
55721;DHT22;41626;53.098;6.168;2022-08-03T07:53:50;23.40;99.90
55721;DHT22;41626;53.098;6.168;2022-08-03T07:56:16;23.60;99.90
55721;DHT22;41626;53.098;6.168;2022-08-03T07:58:41;23.20;99.90
55721;DHT22;41626;53.098;6.168;2022-08-03T08:01:07;22.90;99.90
55721;DHT22;41626;53.098;6.168;2022-08-03T08:03:33;22.90;99.90
55721;DHT22;41626;53.098;6.168;2022-08-03T08:05:58;23.00;99.90
55721;DHT22;41626;53.098;6.168;2022-08-03T08:08:24;23.30;99.90
55721;DHT22;41626;53.098;6.168;2022-08-03T08:10:50;23.30;99.90
55721;DHT22;41626;53.098;6.168;2022-08-03T08:13:15;23.20;99.90
55721;DHT22;41626;53.098;6.168;2022-08-03T08:15:41;23.40;99.90
55721;DHT22;41626;53.098;6.168;2022-08-03T08:18:07;23.50;99.90
55721;DHT22;41626;53.098;6.168;2022-08-03T08:20:34;23.60;99.90
55721;DHT22;41626;53.098;6.168;2022-08-03T08:23:04;23.70;99.90
55721;DHT22;41626;53.098;6.168;2022-08-03T08:25:31;23.50;99.90
55721;DHT22;41626;53.098;6.168;2022-08-03T08:27:57;23.10;99.90
55721;DHT22;41626;53.098;6.168;2022-08-03T08:30:26;22.80;99.90
55721;DHT22;41626;53.098;6.168;2022-08-03T08:32:51;22.70;99.90
55721;DHT22;41626;53.098;6.168;2022-08-03T08:35:18;23.00;99.90
55721;DHT22;41626;53.098;6.168;2022-08-03T08:37:45;23.20;99.90
55721;DHT22;41626;53.098;6.168;2022-08-03T08:40:11;23.00;99.90
55721;DHT22;41626;53.098;6.168;2022-08-03T08:42:39;22.70;99.90
55721;DHT22;41626;53.098;6.168;2022-08-03T08:45:05;22.80;99.90
55721;DHT22;41626;53.098;6.168;2022-08-03T08:47:35;23.00;99.90
55721;DHT22;41626;53.098;6.168;2022-08-03T08:50:02;23.60;99.90
55721;DHT22;41626;53.098;6.168;2022-08-03T08:52:28;23.70;99.90
55721;DHT22;41626;53.098;6.168;2022-08-03T08:55:00;23.90;99.90
55721;DHT22;41626;53.098;6.168;2022-08-03T08:57:36;24.00;99.90
55721;DHT22;41626;53.098;6.168;2022-08-03T09:00:07;24.00;99.90
55721;DHT22;41626;53.098;6.168;2022-08-03T09:02:34;24.10;99.90
55721;DHT22;41626;53.098;6.168;2022-08-03T09:05:00;23.80;99.90
55721;DHT22;41626;53.098;6.168;2022-08-03T09:07:27;23.90;99.90
55721;DHT22;41626;53.098;6.168;2022-08-03T09:09:53;24.20;99.90
55721;DHT22;41626;53.098;6.168;2022-08-03T09:12:19;24.50;99.90
55721;DHT22;41626;53.098;6.168;2022-08-03T09:14:45;24.60;99.90
55721;DHT22;41626;53.098;6.168;2022-08-03T09:17:10;24.10;99.90
55721;DHT22;41626;53.098;6.168;2022-08-03T09:19:36;24.30;99.90
55721;DHT22;41626;53.098;6.168;2022-08-03T09:22:13;24.30;99.90
55721;DHT22;41626;53.098;6.168;2022-08-03T09:25:05;24.00;99.90
55721;DHT22;41626;53.098;6.168;2022-08-03T09:27:45;23.70;99.90
55721;DHT22;41626;53.098;6.168;2022-08-03T09:30:16;23.80;99.90
55721;DHT22;41626;53.098;6.168;2022-08-03T09:32:42;24.00;99.90
55721;DHT22;41626;53.098;6.168;2022-08-03T09:35:11;24.30;99.90
55721;DHT22;41626;53.098;6.168;2022-08-03T09:37:37;24.40;99.90
55721;DHT22;41626;53.098;6.168;2022-08-03T09:40:04;24.50;99.90
55721;DHT22;41626;53.098;6.168;2022-08-03T09:42:30;24.40;99.90
55721;DHT22;41626;53.098;6.168;2022-08-03T09:44:55;24.50;99.90
55721;DHT22;41626;53.098;6.168;2022-08-03T09:47:32;24.50;99.90
55721;DHT22;41626;53.098;6.168;2022-08-03T09:50:08;24.40;99.90
55721;DHT22;41626;53.098;6.168;2022-08-03T09:52:38;24.50;99.90
55721;DHT22;41626;53.098;6.168;2022-08-03T09:55:09;24.50;99.90
55721;DHT22;41626;53.098;6.168;2022-08-03T09:57:35;24.60;99.90
55721;DHT22;41626;53.098;6.168;2022-08-03T10:00:12;24.90;99.90
55721;DHT22;41626;53.098;6.168;2022-08-03T10:02:40;25.10;99.90
55721;DHT22;41626;53.098;6.168;2022-08-03T10:05:09;25.20;99.90
55721;DHT22;41626;53.098;6.168;2022-08-03T10:07:46;25.30;99.90
55721;DHT22;41626;53.098;6.168;2022-08-03T10:10:12;25.40;99.90
55721;DHT22;41626;53.098;6.168;2022-08-03T10:12:40;25.20;99.90
55721;DHT22;41626;53.098;6.168;2022-08-03T10:15:07;25.40;99.90
55721;DHT22;41626;53.098;6.168;2022-08-03T10:17:33;25.10;99.90
55721;DHT22;41626;53.098;6.168;2022-08-03T10:19:58;25.20;99.90
55721;DHT22;41626;53.098;6.168;2022-08-03T10:22:27;25.00;99.90
55721;DHT22;41626;53.098;6.168;2022-08-03T10:25:05;25.00;99.90
55721;DHT22;41626;53.098;6.168;2022-08-03T10:27:35;25.30;99.90
55721;DHT22;41626;53.098;6.168;2022-08-03T10:30:03;25.60;99.90
55721;DHT22;41626;53.098;6.168;2022-08-03T10:32:46;25.60;99.90
55721;DHT22;41626;53.098;6.168;2022-08-03T10:35:18;25.90;99.90
55721;DHT22;41626;53.098;6.168;2022-08-03T10:37:54;25.80;99.90
55721;DHT22;41626;53.098;6.168;2022-08-03T10:40:22;25.70;99.90
55721;DHT22;41626;53.098;6.168;2022-08-03T10:42:50;26.00;99.90
55721;DHT22;41626;53.098;6.168;2022-08-03T10:45:24;26.00;99.90
55721;DHT22;41626;53.098;6.168;2022-08-03T10:47:51;26.00;99.90
55721;DHT22;41626;53.098;6.168;2022-08-03T10:50:17;25.80;99.90
55721;DHT22;41626;53.098;6.168;2022-08-03T10:53:16;25.70;99.90
55721;DHT22;41626;53.098;6.168;2022-08-03T10:55:57;25.60;99.90
55721;DHT22;41626;53.098;6.168;2022-08-03T10:58:45;25.60;99.90
55721;DHT22;41626;53.098;6.168;2022-08-03T11:01:11;25.30;99.90
55721;DHT22;41626;53.098;6.168;2022-08-03T11:06:23;25.30;99.90
55721;DHT22;41626;53.098;6.168;2022-08-03T11:11:35;25.20;99.90
55721;DHT22;41626;53.098;6.168;2022-08-03T11:16:41;25.50;99.90
55721;DHT22;41626;53.098;6.168;2022-08-03T11:19:08;25.70;99.90
55721;DHT22;41626;53.098;6.168;2022-08-03T11:27:25;25.90;99.90
55721;DHT22;41626;53.098;6.168;2022-08-03T11:30:00;26.10;99.90
55721;DHT22;41626;53.098;6.168;2022-08-03T11:40:48;26.20;99.90
55721;DHT22;41626;53.098;6.168;2022-08-03T11:46:03;26.10;99.90
55721;DHT22;41626;53.098;6.168;2022-08-03T11:48:43;26.30;99.90
55721;DHT22;41626;53.098;6.168;2022-08-03T11:51:38;26.30;99.90
55721;DHT22;41626;53.098;6.168;2022-08-03T11:54:05;26.30;99.90
55721;DHT22;41626;53.098;6.168;2022-08-03T11:56:45;26.40;99.90
55721;DHT22;41626;53.098;6.168;2022-08-03T11:59:11;26.70;99.90
55721;DHT22;41626;53.098;6.168;2022-08-03T12:01:37;26.70;99.90
55721;DHT22;41626;53.098;6.168;2022-08-03T12:04:04;26.80;99.90
55721;DHT22;41626;53.098;6.168;2022-08-03T12:06:30;27.00;99.90
55721;DHT22;41626;53.098;6.168;2022-08-03T12:09:16;26.90;99.90
55721;DHT22;41626;53.098;6.168;2022-08-03T12:11:42;26.90;99.90
55721;DHT22;41626;53.098;6.168;2022-08-03T12:14:07;26.80;99.90
55721;DHT22;41626;53.098;6.168;2022-08-03T12:16:46;26.90;99.90
55721;DHT22;41626;53.098;6.168;2022-08-03T12:19:12;26.80;99.90
55721;DHT22;41626;53.098;6.168;2022-08-03T12:21:47;26.90;99.90
55721;DHT22;41626;53.098;6.168;2022-08-03T12:24:13;27.10;99.90
55721;DHT22;41626;53.098;6.168;2022-08-03T12:26:44;27.10;99.90
55721;DHT22;41626;53.098;6.168;2022-08-03T12:29:17;27.30;99.90
55721;DHT22;41626;53.098;6.168;2022-08-03T12:31:43;27.10;99.90
55721;DHT22;41626;53.098;6.168;2022-08-03T12:34:09;27.10;99.90
55721;DHT22;41626;53.098;6.168;2022-08-03T12:36:35;27.10;99.90
55721;DHT22;41626;53.098;6.168;2022-08-03T12:39:06;26.90;99.90
55721;DHT22;41626;53.098;6.168;2022-08-03T12:41:33;27.20;99.90
55721;DHT22;41626;53.098;6.168;2022-08-03T12:44:03;27.10;99.90
55721;DHT22;41626;53.098;6.168;2022-08-03T12:49:08;27.00;99.90
55721;DHT22;41626;53.098;6.168;2022-08-03T12:51:58;27.00;99.90
55721;DHT22;41626;53.098;6.168;2022-08-03T12:54:28;26.80;99.90
55721;DHT22;41626;53.098;6.168;2022-08-03T12:56:58;26.90;99.90
55721;DHT22;41626;53.098;6.168;2022-08-03T12:59:32;26.70;99.90
55721;DHT22;41626;53.098;6.168;2022-08-03T13:01:58;26.70;99.90
55721;DHT22;41626;53.098;6.168;2022-08-03T13:04:32;26.60;99.90
55721;DHT22;41626;53.098;6.168;2022-08-03T13:06:59;26.70;99.90
55721;DHT22;41626;53.098;6.168;2022-08-03T13:09:24;27.00;99.90
55721;DHT22;41626;53.098;6.168;2022-08-03T13:12:15;27.00;99.90
55721;DHT22;41626;53.098;6.168;2022-08-03T13:14:44;27.10;99.90
55721;DHT22;41626;53.098;6.168;2022-08-03T13:17:10;27.00;99.90
55721;DHT22;41626;53.098;6.168;2022-08-03T13:19:36;26.90;99.90
55721;DHT22;41626;53.098;6.168;2022-08-03T13:22:19;27.00;99.90
55721;DHT22;41626;53.098;6.168;2022-08-03T13:24:46;26.80;99.90
55721;DHT22;41626;53.098;6.168;2022-08-03T13:27:12;27.00;99.90
55721;DHT22;41626;53.098;6.168;2022-08-03T13:29:38;27.00;99.90
55721;DHT22;41626;53.098;6.168;2022-08-03T13:32:06;27.20;99.90
55721;DHT22;41626;53.098;6.168;2022-08-03T13:34:32;27.40;99.90
55721;DHT22;41626;53.098;6.168;2022-08-03T13:36:57;27.40;99.90
55721;DHT22;41626;53.098;6.168;2022-08-03T13:39:23;27.40;99.90
55721;DHT22;41626;53.098;6.168;2022-08-03T13:41:49;27.40;99.90
55721;DHT22;41626;53.098;6.168;2022-08-03T13:44:14;27.40;99.90
55721;DHT22;41626;53.098;6.168;2022-08-03T13:46:40;27.60;99.90
55721;DHT22;41626;53.098;6.168;2022-08-03T13:49:07;27.60;99.90
55721;DHT22;41626;53.098;6.168;2022-08-03T13:51:33;27.60;99.90
55721;DHT22;41626;53.098;6.168;2022-08-03T13:53:59;27.70;99.90
55721;DHT22;41626;53.098;6.168;2022-08-03T13:56:28;27.60;99.90
55721;DHT22;41626;53.098;6.168;2022-08-03T13:58:54;27.50;99.90
55721;DHT22;41626;53.098;6.168;2022-08-03T14:01:20;27.50;99.90
55721;DHT22;41626;53.098;6.168;2022-08-03T14:03:46;27.70;99.90
55721;DHT22;41626;53.098;6.168;2022-08-03T14:06:19;27.60;99.90
55721;DHT22;41626;53.098;6.168;2022-08-03T14:08:45;27.40;99.90
55721;DHT22;41626;53.098;6.168;2022-08-03T14:11:13;27.40;99.90
55721;DHT22;41626;53.098;6.168;2022-08-03T14:13:38;27.40;99.90
55721;DHT22;41626;53.098;6.168;2022-08-03T14:16:04;27.50;99.90
55721;DHT22;41626;53.098;6.168;2022-08-03T14:18:30;27.40;99.90
55721;DHT22;41626;53.098;6.168;2022-08-03T14:20:57;27.50;99.90
55721;DHT22;41626;53.098;6.168;2022-08-03T14:23:24;27.60;99.90
55721;DHT22;41626;53.098;6.168;2022-08-03T14:25:50;27.70;99.90
55721;DHT22;41626;53.098;6.168;2022-08-03T14:28:19;27.70;99.90
55721;DHT22;41626;53.098;6.168;2022-08-03T14:30:46;27.70;99.90
55721;DHT22;41626;53.098;6.168;2022-08-03T14:33:13;27.70;99.90
55721;DHT22;41626;53.098;6.168;2022-08-03T14:35:38;27.80;99.90
55721;DHT22;41626;53.098;6.168;2022-08-03T14:38:04;27.60;99.90
55721;DHT22;41626;53.098;6.168;2022-08-03T14:40:30;27.50;99.90
55721;DHT22;41626;53.098;6.168;2022-08-03T14:42:55;27.40;99.90
55721;DHT22;41626;53.098;6.168;2022-08-03T14:45:21;27.20;99.90
55721;DHT22;41626;53.098;6.168;2022-08-03T14:47:47;27.20;99.90
55721;DHT22;41626;53.098;6.168;2022-08-03T14:50:13;27.40;99.90
55721;DHT22;41626;53.098;6.168;2022-08-03T14:52:39;27.50;99.90
55721;DHT22;41626;53.098;6.168;2022-08-03T14:55:05;27.70;99.90
55721;DHT22;41626;53.098;6.168;2022-08-03T14:57:30;27.60;99.90
55721;DHT22;41626;53.098;6.168;2022-08-03T14:59:56;27.40;99.90
55721;DHT22;41626;53.098;6.168;2022-08-03T15:02:22;27.60;99.90
55721;DHT22;41626;53.098;6.168;2022-08-03T15:04:47;27.40;99.90
55721;DHT22;41626;53.098;6.168;2022-08-03T15:07:13;27.70;99.90
55721;DHT22;41626;53.098;6.168;2022-08-03T15:09:38;27.70;99.90
55721;DHT22;41626;53.098;6.168;2022-08-03T15:12:05;27.80;99.90
55721;DHT22;41626;53.098;6.168;2022-08-03T15:14:31;27.70;99.90
55721;DHT22;41626;53.098;6.168;2022-08-03T15:16:57;27.70;99.90
55721;DHT22;41626;53.098;6.168;2022-08-03T15:19:22;27.60;99.90
55721;DHT22;41626;53.098;6.168;2022-08-03T15:21:48;27.50;99.90
55721;DHT22;41626;53.098;6.168;2022-08-03T15:24:14;27.50;99.90
55721;DHT22;41626;53.098;6.168;2022-08-03T15:26:39;27.50;99.90
55721;DHT22;41626;53.098;6.168;2022-08-03T15:29:05;27.40;99.90
55721;DHT22;41626;53.098;6.168;2022-08-03T15:31:32;27.40;99.90
55721;DHT22;41626;53.098;6.168;2022-08-03T15:33:58;27.40;99.90
55721;DHT22;41626;53.098;6.168;2022-08-03T15:36:24;27.40;99.90
55721;DHT22;41626;53.098;6.168;2022-08-03T15:38:51;27.40;99.90
55721;DHT22;41626;53.098;6.168;2022-08-03T15:41:17;27.30;99.90
55721;DHT22;41626;53.098;6.168;2022-08-03T15:43:43;27.30;99.90
55721;DHT22;41626;53.098;6.168;2022-08-03T15:46:11;27.30;99.90
55721;DHT22;41626;53.098;6.168;2022-08-03T15:48:38;27.30;99.90
55721;DHT22;41626;53.098;6.168;2022-08-03T15:51:04;27.30;99.90
55721;DHT22;41626;53.098;6.168;2022-08-03T15:53:30;27.20;99.90
55721;DHT22;41626;53.098;6.168;2022-08-03T15:55:56;27.20;99.90
55721;DHT22;41626;53.098;6.168;2022-08-03T15:58:21;27.10;99.90
55721;DHT22;41626;53.098;6.168;2022-08-03T16:00:47;27.10;99.90
55721;DHT22;41626;53.098;6.168;2022-08-03T16:03:13;27.10;99.90
55721;DHT22;41626;53.098;6.168;2022-08-03T16:05:39;27.20;99.90
55721;DHT22;41626;53.098;6.168;2022-08-03T16:08:04;27.10;99.90
55721;DHT22;41626;53.098;6.168;2022-08-03T16:10:31;27.20;99.90
55721;DHT22;41626;53.098;6.168;2022-08-03T16:12:56;27.10;99.90